Aviation Digital Data Service (ADDS)

Output produced by METARs form (1457 UTC 19 January 2019)
found at http://www.aviationweather.gov/metar/data/
 
Forecast for: EDDB (BERLIN/SCHONEFEL, DE)
Text: TAF EDDB 191100Z 1912/2012 11004KT CAVOK
Forecast period: 1200 UTC 19 January 2019 to 1200 UTC 20 January 2019
Forecast type: FROM: standard forecast or significant change
Winds: from the ESE (110 degrees) at 5 MPH (4 knots; 2.1 m/s)
Visibility: 6 or more miles 10+ km)
Ceiling: unknown
Clouds: missing
Weather: NSW  (no significant weather)